Time;durP1;ratioP1;P1;durP2;ratioP2;P2;SDS_P1;SDS_P2;PMS_P1;PMS_P2;Temp;Humidity;BMP_temperature;BMP_pressure;BME280_temperature;BME280_humidity;BME280_pressure;Samples;Min_cycle;Max_cycle;Signal;HPM_P1;HPM_P2
2021/05/16 00:01:27;;;;;;;1.70;1.60;;;;;;;;;;5035613;28;20227;-82
2021/05/16 00:03:53;;;;;;;1.38;1.27;;;;;;;;;;5035883;28;20700;-82
2021/05/16 00:06:21;;;;;;;2.38;1.55;;;;;;;;;;5035925;28;20202;-82
2021/05/16 00:08:48;;;;;;;1.70;1.60;;;;;;;;;;5036159;28;20734;-82
2021/05/16 00:11:15;;;;;;;1.88;1.77;;;;;;;;;;5036824;28;20194;-82
2021/05/16 00:13:42;;;;;;;1.23;1.15;;;;;;;;;;5036105;28;20213;-82
2021/05/16 00:16:09;;;;;;;1.33;1.20;;;;;;;;;;5036138;28;20229;-82
2021/05/16 00:18:36;;;;;;;1.83;1.23;;;;;;;;;;5035711;28;20202;-82
2021/05/16 00:21:03;;;;;;;4.82;1.77;;;;;;;;;;5035604;28;20229;-82
2021/05/16 00:23:30;;;;;;;1.77;1.48;;;;;;;;;;5035793;28;20202;-82
2021/05/16 00:25:57;;;;;;;2.00;1.27;;;;;;;;;;5036340;28;20197;-82
2021/05/16 00:28:24;;;;;;;1.27;1.20;;;;;;;;;;5035612;28;20215;-82
2021/05/16 00:30:52;;;;;;;1.50;1.40;;;;;;;;;;5035419;28;20215;-82
2021/05/16 00:33:19;;;;;;;1.48;1.38;;;;;;;;;;5036019;28;20198;-82
2021/05/16 00:35:46;;;;;;;3.22;1.48;;;;;;;;;;5035890;28;20202;-82
2021/05/16 00:38:13;;;;;;;2.13;1.30;;;;;;;;;;5035601;28;20210;-82
2021/05/16 00:40:41;;;;;;;1.60;1.50;;;;;;;;;;5035678;28;20233;-82
2021/05/16 00:43:08;;;;;;;2.33;1.30;;;;;;;;;;5035663;28;20202;-82
2021/05/16 00:45:35;;;;;;;3.13;1.40;;;;;;;;;;5035472;28;20583;-82
2021/05/16 00:48:05;;;;;;;1.42;1.33;;;;;;;;;;5035307;28;20703;-82
2021/05/16 00:50:35;;;;;;;1.95;1.30;;;;;;;;;;5035278;28;20223;-82
2021/05/16 00:53:02;;;;;;;2.30;1.70;;;;;;;;;;5036065;28;20207;-82
2021/05/16 00:55:29;;;;;;;2.78;1.50;;;;;;;;;;5035144;28;20252;-82
2021/05/16 00:57:57;;;;;;;1.60;1.30;;;;;;;;;;5036353;28;20202;-82
2021/05/16 01:00:26;;;;;;;3.33;1.73;;;;;;;;;;5039152;28;20238;-82
2021/05/16 01:02:53;;;;;;;2.28;1.33;;;;;;;;;;5038837;28;20206;-82
2021/05/16 01:05:21;;;;;;;1.98;1.30;;;;;;;;;;5039354;28;20221;-82
2021/05/16 01:07:49;;;;;;;1.48;1.38;;;;;;;;;;5038858;28;20202;-82
2021/05/16 01:10:18;;;;;;;3.28;1.35;;;;;;;;;;5038913;28;20222;-82
2021/05/16 01:12:46;;;;;;;2.95;1.27;;;;;;;;;;5039741;28;20206;-82
2021/05/16 01:15:18;;;;;;;2.72;1.65;;;;;;;;;;5038848;28;20210;-82
2021/05/16 01:17:46;;;;;;;1.88;1.38;;;;;;;;;;5038388;28;20257;-82
2021/05/16 01:20:18;;;;;;;4.03;1.90;;;;;;;;;;5039136;28;20230;-82
2021/05/16 01:22:52;;;;;;;2.40;1.50;;;;;;;;;;5039000;28;20199;-82
2021/05/16 01:25:19;;;;;;;1.60;1.50;;;;;;;;;;5039242;28;20565;-82
2021/05/16 01:27:46;;;;;;;3.83;1.48;;;;;;;;;;5038913;28;20210;-82
2021/05/16 01:30:15;;;;;;;1.60;1.50;;;;;;;;;;5038985;28;20268;-82
2021/05/16 01:32:42;;;;;;;2.22;1.60;;;;;;;;;;5039292;28;20202;-82
2021/05/16 01:35:10;;;;;;;1.52;1.40;;;;;;;;;;5038614;28;20583;-81
2021/05/16 01:37:37;;;;;;;2.22;1.70;;;;;;;;;;5038494;28;20607;-82
2021/05/16 01:40:07;;;;;;;3.00;1.75;;;;;;;;;;5038756;28;20226;-82
2021/05/16 01:42:34;;;;;;;2.75;1.45;;;;;;;;;;5038408;28;20276;-82
2021/05/16 01:45:03;;;;;;;1.95;1.42;;;;;;;;;;5038475;28;20206;-82
2021/05/16 01:47:30;;;;;;;2.70;1.63;;;;;;;;;;5038809;28;20191;-82
2021/05/16 01:50:07;;;;;;;1.40;1.30;;;;;;;;;;5038186;28;20226;-82
2021/05/16 01:52:35;;;;;;;1.38;1.27;;;;;;;;;;5038222;28;20198;-82
2021/05/16 01:55:02;;;;;;;2.50;1.52;;;;;;;;;;5038627;28;20747;-81
2021/05/16 01:57:30;;;;;;;2.42;1.42;;;;;;;;;;5038456;28;20198;-82
2021/05/16 01:59:57;;;;;;;1.63;1.52;;;;;;;;;;5038322;28;20234;-82
2021/05/16 02:02:24;;;;;;;2.45;1.30;;;;;;;;;;5038916;28;20261;-82
2021/05/16 02:04:51;;;;;;;2.05;1.70;;;;;;;;;;5037510;28;20232;-82
2021/05/16 02:07:18;;;;;;;1.17;1.08;;;;;;;;;;5037802;28;20202;-81
2021/05/16 02:09:45;;;;;;;3.45;1.27;;;;;;;;;;5036554;28;20218;-82
2021/05/16 02:12:12;;;;;;;1.23;1.13;;;;;;;;;;5038621;28;20210;-82
2021/05/16 02:14:40;;;;;;;3.83;2.58;;;;;;;;;;5038634;28;20202;-82
2021/05/16 02:17:06;;;;;;;3.28;1.30;;;;;;;;;;5038261;28;20230;-81
2021/05/16 02:19:33;;;;;;;2.08;1.45;;;;;;;;;;5037957;28;20229;-81
2021/05/16 02:22:00;;;;;;;1.67;1.33;;;;;;;;;;5037972;28;20229;-82
2021/05/16 02:24:27;;;;;;;2.53;1.23;;;;;;;;;;5036753;28;20661;-82
2021/05/16 02:26:59;;;;;;;3.65;1.58;;;;;;;;;;5037266;28;20202;-82
2021/05/16 02:29:26;;;;;;;1.90;1.45;;;;;;;;;;5037565;28;20603;-81
2021/05/16 02:31:54;;;;;;;1.42;1.33;;;;;;;;;;5037681;28;20237;-82
2021/05/16 02:34:21;;;;;;;4.15;1.70;;;;;;;;;;5037228;28;20240;-82
2021/05/16 02:36:48;;;;;;;2.42;1.30;;;;;;;;;;5037347;28;20202;-82
2021/05/16 02:39:15;;;;;;;2.60;1.42;;;;;;;;;;5037099;28;20226;-81
2021/05/16 02:41:42;;;;;;;1.42;1.33;;;;;;;;;;5037663;28;20217;-82
2021/05/16 02:44:09;;;;;;;2.63;1.65;;;;;;;;;;5037800;28;20583;-81
2021/05/16 02:46:37;;;;;;;2.65;1.27;;;;;;;;;;5037474;28;20220;-81
2021/05/16 02:49:05;;;;;;;3.05;1.67;;;;;;;;;;5038001;28;20199;-81
2021/05/16 02:51:31;;;;;;;2.50;1.27;;;;;;;;;;5037328;28;20202;-82
2021/05/16 02:53:58;;;;;;;2.33;1.30;;;;;;;;;;5037601;28;20218;-82
2021/05/16 02:56:25;;;;;;;5.35;1.88;;;;;;;;;;5037781;28;20210;-82
2021/05/16 02:58:52;;;;;;;6.15;1.45;;;;;;;;;;5037782;28;20202;-82
2021/05/16 03:01:19;;;;;;;2.20;1.38;;;;;;;;;;5036817;28;20222;-82
2021/05/16 03:03:45;;;;;;;2.50;1.10;;;;;;;;;;5036866;28;20205;-82
2021/05/16 03:06:13;;;;;;;2.78;1.67;;;;;;;;;;5037236;28;20206;-82
2021/05/16 03:08:40;;;;;;;1.70;1.48;;;;;;;;;;5036966;28;20202;-82
2021/05/16 03:11:07;;;;;;;1.77;1.00;;;;;;;;;;5037195;28;20592;-82
2021/05/16 03:13:34;;;;;;;7.22;1.75;;;;;;;;;;5036861;28;20206;-82
2021/05/16 03:16:00;;;;;;;5.32;2.50;;;;;;;;;;5036715;28;20712;-82
2021/05/16 03:18:27;;;;;;;2.22;1.10;;;;;;;;;;5037235;28;20198;-82
2021/05/16 03:20:54;;;;;;;2.28;1.77;;;;;;;;;;5037225;28;20222;-82
2021/05/16 03:23:22;;;;;;;1.98;1.38;;;;;;;;;;5037252;28;20190;-82
2021/05/16 03:25:49;;;;;;;3.97;1.60;;;;;;;;;;5037099;28;20585;-83
2021/05/16 03:28:16;;;;;;;2.03;1.60;;;;;;;;;;5037309;28;20217;-83
2021/05/16 03:30:43;;;;;;;1.58;1.27;;;;;;;;;;5037018;28;20222;-83
2021/05/16 03:33:09;;;;;;;2.05;1.48;;;;;;;;;;5037374;28;20206;-83
2021/05/16 03:35:36;;;;;;;1.92;1.23;;;;;;;;;;5037218;28;20586;-82
2021/05/16 03:38:03;;;;;;;4.55;1.70;;;;;;;;;;5036587;28;20751;-82
2021/05/16 03:40:31;;;;;;;5.97;1.48;;;;;;;;;;5037536;28;20650;-83
2021/05/16 03:42:58;;;;;;;4.85;1.92;;;;;;;;;;5036895;28;20229;-83
2021/05/16 03:45:24;;;;;;;2.30;1.48;;;;;;;;;;5036378;28;20206;-82
2021/05/16 03:47:51;;;;;;;3.97;1.35;;;;;;;;;;5037039;28;20203;-83
2021/05/16 03:50:18;;;;;;;4.03;1.85;;;;;;;;;;5036488;28;20225;-83
2021/05/16 03:52:45;;;;;;;2.72;1.38;;;;;;;;;;5037262;28;20615;-83
2021/05/16 03:55:13;;;;;;;2.45;1.23;;;;;;;;;;5036812;28;20568;-83
2021/05/16 03:57:41;;;;;;;3.33;1.75;;;;;;;;;;5036945;28;20195;-83
2021/05/16 04:00:11;;;;;;;2.47;1.33;;;;;;;;;;5036641;28;20238;-83
2021/05/16 04:02:38;;;;;;;2.88;1.55;;;;;;;;;;5036900;28;20221;-83
2021/05/16 04:05:07;;;;;;;3.90;1.40;;;;;;;;;;5036845;28;20214;-84
2021/05/16 04:07:33;;;;;;;4.28;1.50;;;;;;;;;;5037093;28;20198;-83
2021/05/16 04:10:00;;;;;;;5.80;1.67;;;;;;;;;;5037310;28;20225;-83
2021/05/16 04:12:27;;;;;;;3.42;1.52;;;;;;;;;;5036339;28;20207;-83
2021/05/16 04:14:55;;;;;;;2.97;1.52;;;;;;;;;;5037385;28;20206;-83
2021/05/16 04:17:21;;;;;;;1.50;1.40;;;;;;;;;;5036588;28;20238;-82
2021/05/16 04:19:48;;;;;;;3.67;1.88;;;;;;;;;;5036443;28;20237;-83
2021/05/16 04:22:15;;;;;;;3.97;1.45;;;;;;;;;;5037029;28;20244;-82
2021/05/16 04:24:42;;;;;;;1.73;1.40;;;;;;;;;;5036491;28;20201;-83
2021/05/16 04:27:09;;;;;;;3.70;1.27;;;;;;;;;;5036871;28;20194;-82
2021/05/16 04:29:36;;;;;;;3.20;1.85;;;;;;;;;;5037217;28;20226;-82
2021/05/16 04:32:04;;;;;;;2.03;1.50;;;;;;;;;;5035232;28;20189;-82
2021/05/16 04:34:31;;;;;;;3.33;1.30;;;;;;;;;;5038824;28;20198;-82
2021/05/16 04:36:58;;;;;;;3.15;1.42;;;;;;;;;;5038900;28;20684;-82
2021/05/16 04:39:25;;;;;;;2.88;1.80;;;;;;;;;;5038683;28;20214;-82
2021/05/16 04:41:51;;;;;;;3.08;1.70;;;;;;;;;;5038981;28;20579;-83
2021/05/16 04:44:18;;;;;;;1.73;1.30;;;;;;;;;;5038904;28;20618;-83
2021/05/16 04:46:45;;;;;;;4.07;1.30;;;;;;;;;;5038932;28;20205;-83
2021/05/16 04:49:14;;;;;;;4.05;1.90;;;;;;;;;;5039112;28;20667;-82
2021/05/16 04:51:41;;;;;;;1.75;1.50;;;;;;;;;;5038957;28;20182;-83
2021/05/16 04:54:08;;;;;;;2.28;1.38;;;;;;;;;;5039073;28;20202;-83
2021/05/16 04:56:35;;;;;;;3.00;1.98;;;;;;;;;;5038645;28;20213;-82
2021/05/16 04:59:02;;;;;;;2.55;1.42;;;;;;;;;;5038802;28;20209;-82
2021/05/16 05:01:29;;;;;;;2.58;1.23;;;;;;;;;;5039002;28;20301;-82
2021/05/16 05:03:56;;;;;;;2.03;1.77;;;;;;;;;;5038300;28;20208;-83
2021/05/16 05:06:24;;;;;;;2.67;1.45;;;;;;;;;;5038396;28;20657;-83
2021/05/16 05:08:50;;;;;;;2.72;1.45;;;;;;;;;;5038310;28;20202;-83
2021/05/16 05:11:17;;;;;;;4.13;1.35;;;;;;;;;;5038236;28;20210;-83
2021/05/16 05:13:45;;;;;;;3.92;1.42;;;;;;;;;;5038461;28;20203;-83
2021/05/16 05:16:12;;;;;;;3.80;1.98;;;;;;;;;;5038411;28;20245;-83
2021/05/16 05:18:39;;;;;;;2.92;1.70;;;;;;;;;;5037677;28;20242;-83
2021/05/16 05:21:08;;;;;;;2.63;1.70;;;;;;;;;;5037995;28;20219;-83
2021/05/16 05:23:35;;;;;;;4.72;1.50;;;;;;;;;;5037723;28;20304;-83
2021/05/16 05:26:02;;;;;;;4.07;1.73;;;;;;;;;;5038083;28;20205;-83
2021/05/16 05:28:29;;;;;;;2.42;1.30;;;;;;;;;;5038494;28;20191;-83
2021/05/16 05:30:56;;;;;;;4.25;1.58;;;;;;;;;;5037872;28;20716;-83
2021/05/16 05:33:23;;;;;;;5.00;1.92;;;;;;;;;;5037532;28;20209;-82
2021/05/16 05:35:52;;;;;;;3.33;1.40;;;;;;;;;;5038254;28;20237;-83
2021/05/16 05:38:19;;;;;;;3.33;1.52;;;;;;;;;;5038191;28;20203;-82
2021/05/16 05:40:48;;;;;;;1.40;1.30;;;;;;;;;;5037311;28;20249;-83
2021/05/16 05:43:15;;;;;;;5.53;1.38;;;;;;;;;;5036876;28;20226;-83
2021/05/16 05:45:42;;;;;;;4.05;1.85;;;;;;;;;;5037825;28;20264;-83
2021/05/16 05:48:09;;;;;;;2.53;1.52;;;;;;;;;;5038288;28;20256;-83
2021/05/16 05:50:36;;;;;;;3.53;1.58;;;;;;;;;;5038028;28;20222;-83
2021/05/16 05:53:03;;;;;;;2.55;1.67;;;;;;;;;;5038809;28;20186;-84
2021/05/16 05:55:31;;;;;;;3.38;1.60;;;;;;;;;;5038037;28;20202;-84
2021/05/16 05:57:59;;;;;;;5.38;1.98;;;;;;;;;;5037725;28;20229;-84
2021/05/16 06:00:29;;;;;;;5.82;1.70;;;;;;;;;;5037796;28;20709;-84
2021/05/16 06:02:56;;;;;;;4.45;2.00;;;;;;;;;;5037787;28;20218;-83
2021/05/16 06:05:25;;;;;;;3.60;1.70;;;;;;;;;;5037885;28;20213;-83
2021/05/16 06:07:52;;;;;;;6.10;2.08;;;;;;;;;;5037462;28;20225;-83
2021/05/16 06:10:19;;;;;;;3.85;1.95;;;;;;;;;;5037534;28;20229;-84
2021/05/16 06:12:46;;;;;;;2.65;1.60;;;;;;;;;;5038448;28;20204;-83
2021/05/16 06:15:14;;;;;;;4.30;1.75;;;;;;;;;;5037900;28;20210;-84
2021/05/16 06:17:41;;;;;;;4.25;2.17;;;;;;;;;;5037396;28;20252;-84
2021/05/16 06:20:10;;;;;;;4.22;1.60;;;;;;;;;;5036973;28;20241;-83
2021/05/16 06:22:37;;;;;;;3.78;1.55;;;;;;;;;;5037541;28;20234;-84
2021/05/16 06:25:05;;;;;;;3.35;2.40;;;;;;;;;;5036737;28;20206;-84
2021/05/16 06:27:31;;;;;;;4.95;1.48;;;;;;;;;;5037197;28;20219;-83
2021/05/16 06:29:58;;;;;;;7.35;1.77;;;;;;;;;;5036549;28;20712;-84
2021/05/16 06:32:26;;;;;;;2.10;1.42;;;;;;;;;;5037229;28;20202;-83
2021/05/16 06:34:53;;;;;;;6.60;2.78;;;;;;;;;;5037175;28;20202;-83
2021/05/16 06:37:21;;;;;;;4.10;1.90;;;;;;;;;;5037146;28;20205;-83
2021/05/16 06:39:47;;;;;;;2.22;1.23;;;;;;;;;;5037013;28;20594;-83
2021/05/16 06:42:14;;;;;;;3.10;1.50;;;;;;;;;;5036932;28;20206;-84
2021/05/16 06:44:41;;;;;;;3.50;1.63;;;;;;;;;;5037303;28;20289;-83
2021/05/16 06:47:08;;;;;;;1.70;1.27;;;;;;;;;;5037610;28;20245;-84
2021/05/16 06:49:36;;;;;;;5.70;2.10;;;;;;;;;;5037857;28;20229;-83
2021/05/16 06:52:04;;;;;;;3.63;1.50;;;;;;;;;;5037167;28;20233;-84
2021/05/16 06:54:31;;;;;;;3.97;1.42;;;;;;;;;;5037060;28;20667;-83
2021/05/16 06:56:58;;;;;;;6.20;2.00;;;;;;;;;;5037012;28;20186;-83
2021/05/16 06:59:25;;;;;;;2.80;1.80;;;;;;;;;;5036924;28;20237;-83
2021/05/16 07:01:51;;;;;;;7.78;2.35;;;;;;;;;;5035218;28;20242;-85
2021/05/16 07:04:18;;;;;;;2.20;1.30;;;;;;;;;;5035509;28;20209;-83
2021/05/16 07:06:46;;;;;;;2.15;1.65;;;;;;;;;;5037228;28;20277;-82
2021/05/16 07:09:13;;;;;;;6.18;1.65;;;;;;;;;;5036372;28;20222;-83
2021/05/16 07:11:40;;;;;;;3.83;1.90;;;;;;;;;;5036319;28;20676;-83
2021/05/16 07:14:06;;;;;;;2.17;1.50;;;;;;;;;;5036548;28;20182;-84
2021/05/16 07:16:36;;;;;;;1.70;1.20;;;;;;;;;;5036148;28;20574;-84
2021/05/16 07:19:03;;;;;;;3.53;1.45;;;;;;;;;;5035795;28;20213;-84
2021/05/16 07:21:30;;;;;;;2.10;1.65;;;;;;;;;;5034690;28;20255;-84
2021/05/16 07:23:58;;;;;;;3.33;1.77;;;;;;;;;;5035586;28;20241;-84
2021/05/16 07:26:25;;;;;;;3.28;1.60;;;;;;;;;;5036008;28;20198;-84
2021/05/16 07:28:52;;;;;;;2.92;1.80;;;;;;;;;;5036100;28;20198;-84
2021/05/16 07:31:19;;;;;;;2.35;1.52;;;;;;;;;;5035956;28;20189;-84
2021/05/16 07:33:45;;;;;;;3.65;1.42;;;;;;;;;;5036654;28;20202;-84
2021/05/16 07:36:12;;;;;;;2.42;1.60;;;;;;;;;;5036756;28;20202;-85
2021/05/16 07:38:39;;;;;;;6.95;2.08;;;;;;;;;;5036423;28;20672;-84
2021/05/16 07:41:08;;;;;;;3.63;1.63;;;;;;;;;;5037146;28;20291;-85
2021/05/16 07:43:38;;;;;;;5.75;1.80;;;;;;;;;;5036400;28;20230;-85
2021/05/16 07:46:05;;;;;;;5.65;2.10;;;;;;;;;;5036505;28;20187;-83
2021/05/16 07:48:32;;;;;;;2.88;1.58;;;;;;;;;;5036358;28;20222;-84
2021/05/16 07:51:06;;;;;;;3.45;1.67;;;;;;;;;;5037133;28;20222;-84
2021/05/16 07:53:35;;;;;;;6.22;2.03;;;;;;;;;;5036379;28;20201;-84
2021/05/16 07:56:03;;;;;;;4.72;1.80;;;;;;;;;;5036178;28;20277;-83
2021/05/16 07:58:31;;;;;;;4.20;2.33;;;;;;;;;;5036674;28;20213;-84
2021/05/16 08:00:58;;;;;;;4.80;1.95;;;;;;;;;;5036663;28;20222;-84
2021/05/16 08:03:24;;;;;;;4.03;1.75;;;;;;;;;;5035805;28;20604;-84
2021/05/16 08:05:52;;;;;;;2.25;1.75;;;;;;;;;;5036483;28;20186;-84
2021/05/16 08:08:19;;;;;;;3.42;2.08;;;;;;;;;;5036902;28;20202;-85
2021/05/16 08:10:46;;;;;;;2.30;1.30;;;;;;;;;;5036514;28;20214;-83
2021/05/16 08:13:13;;;;;;;4.32;1.48;;;;;;;;;;5036300;28;20657;-84
2021/05/16 08:15:41;;;;;;;5.07;1.70;;;;;;;;;;5036463;28;20205;-84
2021/05/16 08:18:09;;;;;;;3.60;1.33;;;;;;;;;;5036668;28;20573;-84
2021/05/16 08:20:37;;;;;;;3.97;1.50;;;;;;;;;;5036305;28;20226;-84
2021/05/16 08:23:04;;;;;;;5.93;1.77;;;;;;;;;;5036518;28;20206;-84
2021/05/16 08:25:32;;;;;;;5.35;1.58;;;;;;;;;;5036476;28;20218;-84
2021/05/16 08:27:59;;;;;;;4.90;1.60;;;;;;;;;;5036252;28;20202;-84
2021/05/16 08:30:28;;;;;;;6.22;1.90;;;;;;;;;;5036020;28;20211;-84
2021/05/16 08:32:56;;;;;;;4.53;2.00;;;;;;;;;;5036285;28;20630;-83
2021/05/16 08:35:23;;;;;;;1.90;1.40;;;;;;;;;;5035999;28;20206;-83
2021/05/16 08:37:50;;;;;;;6.25;2.20;;;;;;;;;;5036204;28;20185;-84
2021/05/16 08:40:17;;;;;;;2.88;1.60;;;;;;;;;;5036472;28;20225;-83
2021/05/16 08:42:44;;;;;;;2.45;1.83;;;;;;;;;;5036081;28;20198;-84
2021/05/16 08:45:15;;;;;;;3.05;1.70;;;;;;;;;;5039330;28;20207;-84
2021/05/16 08:47:44;;;;;;;7.60;1.95;;;;;;;;;;5040415;28;20191;-84
2021/05/16 08:50:15;;;;;;;4.22;1.80;;;;;;;;;;5040011;28;20226;-83
2021/05/16 08:52:41;;;;;;;3.72;1.90;;;;;;;;;;5039951;28;20195;-83
2021/05/16 08:55:11;;;;;;;4.03;1.70;;;;;;;;;;5038961;28;20684;-84
2021/05/16 08:57:38;;;;;;;4.50;1.90;;;;;;;;;;5039385;28;20198;-85
2021/05/16 09:00:17;;;;;;;7.05;2.00;;;;;;;;;;5042135;28;20249;-85
2021/05/16 09:03:04;;;;;;;8.88;1.70;;;;;;;;;;5041551;28;20581;-85
2021/05/16 09:05:35;;;;;;;5.65;2.35;;;;;;;;;;5041169;28;20216;-85
2021/05/16 09:08:04;;;;;;;4.35;1.75;;;;;;;;;;5039956;28;20208;-85
2021/05/16 09:10:32;;;;;;;2.85;1.95;;;;;;;;;;5038801;28;20234;-85
2021/05/16 09:13:17;;;;;;;4.18;2.78;;;;;;;;;;5035773;28;20206;-84
2021/05/16 09:16:00;;;;;;;3.67;1.73;;;;;;;;;;5035507;28;21109;-84
2021/05/16 09:18:45;;;;;;;6.80;1.80;;;;;;;;;;5036471;28;20202;-85
2021/05/16 09:21:28;;;;;;;5.55;1.88;;;;;;;;;;5039192;28;20248;-85
2021/05/16 09:24:15;;;;;;;4.13;1.45;;;;;;;;;;5039457;28;20210;-85
2021/05/16 09:26:55;;;;;;;4.80;1.80;;;;;;;;;;5039110;28;20649;-85
2021/05/16 09:29:29;;;;;;;2.88;2.42;;;;;;;;;;5038035;28;20280;-84
2021/05/16 09:31:58;;;;;;;5.63;1.60;;;;;;;;;;5039295;28;20194;-85
2021/05/16 09:34:25;;;;;;;5.90;1.50;;;;;;;;;;5038691;28;20582;-85
2021/05/16 09:36:55;;;;;;;4.53;1.60;;;;;;;;;;5039748;28;20209;-85
2021/05/16 09:39:24;;;;;;;4.30;1.60;;;;;;;;;;5038808;28;20222;-85
2021/05/16 09:42:04;;;;;;;4.20;1.83;;;;;;;;;;5038686;28;20203;-84
2021/05/16 09:44:37;;;;;;;5.40;1.98;;;;;;;;;;5038041;28;20263;-84
2021/05/16 09:47:17;;;;;;;3.80;1.98;;;;;;;;;;5038110;28;20660;-84
2021/05/16 09:49:48;;;;;;;3.78;1.58;;;;;;;;;;5038096;28;20297;-84
2021/05/16 09:52:17;;;;;;;4.93;1.55;;;;;;;;;;5038402;28;20206;-84
2021/05/16 09:55:05;;;;;;;6.25;1.60;;;;;;;;;;5037557;28;20205;-84
2021/05/16 09:57:34;;;;;;;2.42;1.40;;;;;;;;;;5037783;28;20206;-85
2021/05/16 10:00:07;;;;;;;2.78;1.33;;;;;;;;;;5038132;28;20214;-86
2021/05/16 10:02:34;;;;;;;4.13;2.38;;;;;;;;;;5037729;28;20206;-85
2021/05/16 10:05:01;;;;;;;3.80;1.40;;;;;;;;;;5037401;28;20317;-86
2021/05/16 10:07:30;;;;;;;3.80;1.38;;;;;;;;;;5038938;28;20198;-85
2021/05/16 10:09:58;;;;;;;4.07;1.70;;;;;;;;;;5037881;28;20214;-85
2021/05/16 10:12:26;;;;;;;3.17;1.75;;;;;;;;;;5038931;28;20193;-86
2021/05/16 10:14:56;;;;;;;3.08;1.33;;;;;;;;;;5038497;28;20248;-85
2021/05/16 10:17:23;;;;;;;3.67;1.30;;;;;;;;;;5037523;28;20233;-86
2021/05/16 10:19:50;;;;;;;2.47;1.20;;;;;;;;;;5038361;28;20229;-86
2021/05/16 10:22:18;;;;;;;1.88;1.40;;;;;;;;;;5037997;28;20230;-86
2021/05/16 10:24:47;;;;;;;2.90;1.23;;;;;;;;;;5037651;28;20218;-86
2021/05/16 10:27:23;;;;;;;3.42;1.70;;;;;;;;;;5037317;28;20190;-86
2021/05/16 10:29:55;;;;;;;4.13;1.58;;;;;;;;;;5034395;28;20269;-86
2021/05/16 10:32:37;;;;;;;3.08;2.03;;;;;;;;;;5033499;28;20187;-86
2021/05/16 10:35:11;;;;;;;3.58;1.90;;;;;;;;;;5033475;28;20202;-85
2021/05/16 10:38:02;;;;;;;4.75;1.77;;;;;;;;;;5034612;28;20191;-84
2021/05/16 10:40:34;;;;;;;1.63;1.25;;;;;;;;;;5033953;28;20218;-84
2021/05/16 10:43:27;;;;;;;2.70;2.10;;;;;;;;;;5034458;28;20206;-85
2021/05/16 10:45:54;;;;;;;2.35;1.65;;;;;;;;;;5034159;28;20214;-85
2021/05/16 10:48:21;;;;;;;3.22;1.48;;;;;;;;;;5034791;28;20214;-83
2021/05/16 10:50:57;;;;;;;3.03;2.10;;;;;;;;;;5036872;28;20211;-85
2021/05/16 10:53:36;;;;;;;3.67;1.90;;;;;;;;;;5038868;28;20206;-85
2021/05/16 10:56:13;;;;;;;2.08;1.77;;;;;;;;;;5038337;28;20205;-83
2021/05/16 10:58:46;;;;;;;2.42;1.90;;;;;;;;;;5038035;28;20255;-83
2021/05/16 11:01:16;;;;;;;3.00;1.58;;;;;;;;;;5038671;28;20614;-84
2021/05/16 11:03:56;;;;;;;4.03;1.83;;;;;;;;;;5036241;28;20201;-83
2021/05/16 11:06:25;;;;;;;5.22;1.75;;;;;;;;;;5035906;28;20681;-83
2021/05/16 11:09:02;;;;;;;3.33;2.83;;;;;;;;;;5036277;28;20229;-85
2021/05/16 11:11:33;;;;;;;2.67;1.85;;;;;;;;;;5036011;28;20190;-84
2021/05/16 11:14:03;;;;;;;2.58;1.48;;;;;;;;;;5036844;28;20293;-84
2021/05/16 11:16:32;;;;;;;2.65;1.75;;;;;;;;;;5036426;28;20255;-84
2021/05/16 11:19:00;;;;;;;2.72;1.60;;;;;;;;;;5037598;28;20237;-85
2021/05/16 11:21:29;;;;;;;1.23;1.10;;;;;;;;;;5038019;28;20198;-83
2021/05/16 11:24:00;;;;;;;2.35;1.30;;;;;;;;;;5037006;28;20621;-83
2021/05/16 11:26:35;;;;;;;1.88;1.20;;;;;;;;;;5036842;28;20209;-83
2021/05/16 11:29:05;;;;;;;1.67;1.30;;;;;;;;;;5037114;28;20213;-83
2021/05/16 11:31:34;;;;;;;2.95;1.63;;;;;;;;;;5037483;28;20202;-84
2021/05/16 11:34:04;;;;;;;1.75;1.27;;;;;;;;;;5037195;28;20220;-85
2021/05/16 11:36:33;;;;;;;1.58;1.13;;;;;;;;;;5038312;28;20191;-85
2021/05/16 11:39:01;;;;;;;2.47;2.05;;;;;;;;;;5037111;28;20198;-83
2021/05/16 11:41:33;;;;;;;1.20;1.10;;;;;;;;;;5035588;28;20200;-83
2021/05/16 11:44:02;;;;;;;2.15;1.00;;;;;;;;;;5035890;28;20205;-84
2021/05/16 11:46:32;;;;;;;5.13;1.45;;;;;;;;;;5035684;28;20555;-84
2021/05/16 11:49:03;;;;;;;2.67;1.45;;;;;;;;;;5035202;28;20209;-83
2021/05/16 11:51:32;;;;;;;3.90;2.13;;;;;;;;;;5036498;28;20288;-84
2021/05/16 11:54:01;;;;;;;0.95;0.88;;;;;;;;;;5035586;28;20194;-83
2021/05/16 11:56:34;;;;;;;1.20;1.10;;;;;;;;;;5037229;28;20183;-83
2021/05/16 11:59:03;;;;;;;3.00;1.02;;;;;;;;;;5036615;28;20221;-84
2021/05/16 12:01:35;;;;;;;4.32;1.38;;;;;;;;;;5024178;28;20207;-84
2021/05/16 12:04:05;;;;;;;1.52;1.35;;;;;;;;;;5015895;28;20249;-83
2021/05/16 12:06:40;;;;;;;1.23;0.88;;;;;;;;;;5016094;28;20213;-84
2021/05/16 12:09:10;;;;;;;1.05;0.93;;;;;;;;;;5016398;28;20203;-83
2021/05/16 12:11:39;;;;;;;2.00;0.70;;;;;;;;;;5030461;28;20194;-83
2021/05/16 12:14:12;;;;;;;2.00;0.70;;;;;;;;;;5036408;28;20676;-83
2021/05/16 12:16:39;;;;;;;2.15;1.02;;;;;;;;;;5036805;28;20234;-85
2021/05/16 12:19:07;;;;;;;1.08;0.95;;;;;;;;;;5038812;28;20198;-86
2021/05/16 12:21:38;;;;;;;0.80;0.65;;;;;;;;;;5037444;28;20248;-85
2021/05/16 12:24:09;;;;;;;0.80;0.77;;;;;;;;;;5037873;28;20183;-84
2021/05/16 12:26:39;;;;;;;1.88;1.08;;;;;;;;;;5037600;28;20252;-84
2021/05/16 12:29:07;;;;;;;1.35;0.70;;;;;;;;;;5036547;28;20191;-84
2021/05/16 12:31:34;;;;;;;0.77;0.77;;;;;;;;;;5038573;28;20256;-84
2021/05/16 12:34:04;;;;;;;0.98;0.88;;;;;;;;;;5038941;28;20584;-85
2021/05/16 12:36:46;;;;;;;1.17;0.90;;;;;;;;;;5036627;28;20573;-84
2021/05/16 12:39:13;;;;;;;1.60;1.50;;;;;;;;;;5038319;28;20260;-84
2021/05/16 12:41:41;;;;;;;0.70;0.70;;;;;;;;;;5037650;28;20194;-84
2021/05/16 12:44:13;;;;;;;2.03;1.25;;;;;;;;;;5037545;28;20188;-84
2021/05/16 12:46:45;;;;;;;0.70;0.57;;;;;;;;;;5036898;28;20286;-83
2021/05/16 12:49:13;;;;;;;2.30;0.80;;;;;;;;;;5037585;28;20258;-84
2021/05/16 12:51:41;;;;;;;0.90;0.90;;;;;;;;;;5037435;28;20225;-85
2021/05/16 12:54:22;;;;;;;2.67;0.98;;;;;;;;;;5038907;28;20299;-83
2021/05/16 12:57:02;;;;;;;0.68;0.63;;;;;;;;;;5040540;28;20191;-85
2021/05/16 12:59:34;;;;;;;3.33;0.80;;;;;;;;;;5041273;28;20222;-86
2021/05/16 13:02:13;;;;;;;1.65;0.60;;;;;;;;;;5040494;28;20191;-83
2021/05/16 13:04:49;;;;;;;0.65;0.65;;;;;;;;;;5040006;28;20260;-84
2021/05/16 13:07:35;;;;;;;0.52;0.52;;;;;;;;;;5040744;28;20209;-84
2021/05/16 13:10:17;;;;;;;0.60;0.60;;;;;;;;;;5025817;28;20229;-84
2021/05/16 13:12:44;;;;;;;0.85;0.85;;;;;;;;;;5020222;28;20203;-84
2021/05/16 13:15:12;;;;;;;0.55;0.50;;;;;;;;;;5021243;28;20210;-83
2021/05/16 13:17:39;;;;;;;0.88;0.80;;;;;;;;;;5021892;28;20227;-83
2021/05/16 13:20:20;;;;;;;0.50;0.50;;;;;;;;;;5021825;28;20227;-84
2021/05/16 13:22:47;;;;;;;0.77;0.77;;;;;;;;;;5040094;28;20660;-83
2021/05/16 13:25:15;;;;;;;0.80;0.80;;;;;;;;;;5040156;28;20230;-82
2021/05/16 13:27:43;;;;;;;1.00;1.00;;;;;;;;;;5039769;28;20245;-84
2021/05/16 13:30:13;;;;;;;1.67;0.70;;;;;;;;;;5041751;28;20218;-83
2021/05/16 13:32:41;;;;;;;1.17;1.08;;;;;;;;;;5040854;28;20253;-83
2021/05/16 13:35:09;;;;;;;2.15;0.70;;;;;;;;;;5041111;28;20183;-83
2021/05/16 13:37:36;;;;;;;0.95;0.70;;;;;;;;;;5040697;28;20207;-85
2021/05/16 13:40:04;;;;;;;1.83;0.50;;;;;;;;;;5039914;28;20229;-82
2021/05/16 13:42:31;;;;;;;0.50;0.45;;;;;;;;;;5038919;28;20202;-83
2021/05/16 13:44:58;;;;;;;0.50;0.43;;;;;;;;;;5040628;28;20213;-83
2021/05/16 13:47:26;;;;;;;1.00;0.40;;;;;;;;;;5041321;28;20539;-83
2021/05/16 13:49:52;;;;;;;0.93;0.45;;;;;;;;;;5041070;28;20225;-83
2021/05/16 13:52:20;;;;;;;0.47;0.47;;;;;;;;;;5040686;28;20207;-83
2021/05/16 13:55:31;;;;;;;0.50;0.50;;;;;;;;;;5039179;28;20252;-82
2021/05/16 13:58:22;;;;;;;1.50;0.88;;;;;;;;;;5034684;28;20659;-83
2021/05/16 14:00:49;;;;;;;0.68;0.68;;;;;;;;;;5035503;28;20218;-83
2021/05/16 14:03:22;;;;;;;0.80;0.75;;;;;;;;;;5030211;28;20202;-83
2021/05/16 14:05:51;;;;;;;0.90;0.70;;;;;;;;;;5018462;28;20661;-82
2021/05/16 14:08:19;;;;;;;0.73;0.68;;;;;;;;;;5018415;28;20203;-83
2021/05/16 14:10:49;;;;;;;0.77;0.77;;;;;;;;;;5022583;28;20249;-83
2021/05/16 14:13:20;;;;;;;1.00;0.70;;;;;;;;;;5038004;28;20254;-82
2021/05/16 14:15:52;;;;;;;0.70;0.70;;;;;;;;;;5039816;28;20242;-83
2021/05/16 14:18:22;;;;;;;1.63;0.68;;;;;;;;;;5039428;28;20269;-83
2021/05/16 14:20:51;;;;;;;0.60;0.60;;;;;;;;;;5039114;28;20309;-83
2021/05/16 14:23:21;;;;;;;0.60;0.60;;;;;;;;;;5039872;28;20219;-83
2021/05/16 14:25:52;;;;;;;0.80;0.80;;;;;;;;;;5039916;28;20226;-82
2021/05/16 14:28:19;;;;;;;0.98;0.70;;;;;;;;;;5038972;28;20191;-84
2021/05/16 14:30:46;;;;;;;0.70;0.70;;;;;;;;;;5039395;28;20218;-82
2021/05/16 14:33:16;;;;;;;0.47;0.47;;;;;;;;;;5039649;28;20352;-83
2021/05/16 14:35:44;;;;;;;1.05;0.60;;;;;;;;;;5041999;28;20191;-83
2021/05/16 14:38:11;;;;;;;0.75;0.70;;;;;;;;;;5040685;28;20224;-83
2021/05/16 14:40:38;;;;;;;0.68;0.63;;;;;;;;;;5041069;28;20218;-83
2021/05/16 14:43:05;;;;;;;0.60;0.60;;;;;;;;;;5040974;28;20198;-84
2021/05/16 14:45:32;;;;;;;1.17;0.80;;;;;;;;;;5041390;28;20291;-83
2021/05/16 14:47:59;;;;;;;0.80;0.63;;;;;;;;;;5041574;28;20199;-83
2021/05/16 14:50:34;;;;;;;0.57;0.57;;;;;;;;;;5041302;28;20584;-83
2021/05/16 14:53:02;;;;;;;0.80;0.80;;;;;;;;;;5041481;28;20198;-83
2021/05/16 14:55:29;;;;;;;0.70;0.70;;;;;;;;;;5042237;28;20194;-83